الصفحة الرئيسية
METAR-TAF:

METAR-TAF

مطار :

مطار توزر نفطة الدولي

توزر, تونس

دائرة عرض: 33-55N, خط طول: 008-06E, ارتفاع: 87 متر

مراقبة الطقس الحالي

تاريخ ووقت الإصدار 24 دقيقة قبل الساعة 02:00UTC
ريح 20 عقدة من الشرق
درجة الحرارة 25°درجة مئوية
الرطوبة 39%
ضغط 1012 hPa
الرؤية 10 كم أو أكثر
غيوم قليلة على ارتفاع 4000 قدم

METAR: DTTZ 260200Z 10020KT 9999 FEW040 25/10 Q1012 NOSIG

زمن: 03:24 (02:24 UTC)

توقعات

تاريخ ووقت الإصدار 3ساعات و 24 دقيقة قبل الساعة 23:00UTC
التوقعات صالحة من26 الساعة 00 UTC إلى 26 الساعة 24 UTC
ريح 16 عقدة من الشرق
الرؤية 10 كم أو أكثر
الغيوم لا تقل 1500 م ولا وجود لمزنة ركامية السحاب الأسود
مؤقت
من 26 الساعة 02 UTC إلى 26 الساعة 12 UTC
ريح 17 عقدة من الشرق تتزايد حتى 27 عقدة
الرؤية: 4000 متر
رمل

TAF: DTTZ 252300Z 2600/2624 09016KT CAVOK TEMPO 2602/2612 09017G27KT 4000 SA NSC

أرصاد الطقس والتوقعات من أكثر من 4000 مطار (تقارير الطقس للمطار METAR والتنبؤ بالطقس بالمطارTAF).

المحطات المتاحة هي النقط الصفراء والحمراء على الخريطة.

حرك المؤشر فوق النقطة لمعرفة اسم المحطة.

ثم انقر لمعرفة أرصاد وتوقعات الطقس.

لتغيير الخارطة: اضغط على الأزرار الخضراء مع رمز الصليب الأسود للتكبير. على الزر الأخضر مع شرطة للتصغير، أو على الأسهم الخضراء للخرائط المجاورة.


METAR-TAF: